.
WxDataArchive / Data Records for 2009-10-11
2009-10-10 October 2009 2009-10-12

Data Records for Sunday, 11 October 2009

Time	Temp	Chill	HIndex	Humid	Dewpt	 Wind 	HiWind	WindDir	Rain 	Barom 
-----	----	-----	------	-----	-----	------	------	-------	-----	----- 
00:00	37.5	37.5	37.5	84	33.1	0	0	---	0.00	30.267 
00:05	37.3	37.3	37.3	84	32.9	0	0	---	0.00	30.267 
00:10	37.3	37.3	37.3	85	33.2	0	0	---	0.00	30.267 
00:15	37.2	37.2	37.2	85	33.1	0	0	---	0.00	30.270 
00:20	37.2	37.2	37.2	85	33.1	0	0	---	0.00	30.270 
00:25	37.2	37.2	37.2	85	33.1	0	0	---	0.00	30.270 
00:30	37.2	37.2	37.2	85	33.1	0	0	---	0.00	30.269 
00:35	37.0	37.0	37.0	86	33.2	0	0	---	0.00	30.269 
00:40	37.0	37.0	37.0	85	32.9	0	0	---	0.00	30.269 
00:45	36.8	36.8	36.8	85	32.7	0	0	---	0.00	30.270 
00:50	36.6	36.6	36.6	86	32.8	0	0	---	0.00	30.270 
00:55	36.5	36.5	36.5	86	32.7	0	0	---	0.00	30.270 
01:00	36.3	36.3	36.3	86	32.5	0	0	---	0.00	30.268 
01:05	36.2	36.2	36.2	86	32.4	0	0	---	0.00	30.268 
01:10	36.0	36.0	36.0	87	32.5	0	0	---	0.00	30.268 
01:15	35.9	35.9	35.9	87	32.4	0	0	---	0.00	30.267 
01:20	35.8	35.8	35.8	87	32.3	0	0	---	0.00	30.267 
01:25	35.6	35.6	35.6	88	32.4	0	0	---	0.00	30.267 
01:30	35.8	35.8	35.8	88	32.6	0	0	---	0.00	30.265 
01:35	35.8	35.8	35.8	89	32.9	0	0	---	0.00	30.265 
01:40	35.9	35.9	35.9	89	33.0	0	0	---	0.00	30.265 
01:45	35.9	35.9	35.9	89	33.0	0	0	---	0.00	30.269 
01:50	36.2	36.2	36.2	89	33.3	0	0	---	0.00	30.269 
01:55	36.3	36.3	36.3	89	33.4	0	0	---	0.00	30.269 
02:00	36.5	36.5	36.5	89	33.6	0	0	---	0.00	30.267 
02:05	36.5	36.5	36.5	89	33.6	0	0	---	0.00	30.267 
02:10	36.5	36.5	36.5	89	33.6	0	0	---	0.00	30.267 
02:15	36.5	36.5	36.5	89	33.6	0	0	---	0.00	30.266 
02:20	36.5	36.5	36.5	89	33.6	0	0	---	0.00	30.266 
02:25	36.5	36.5	36.5	90	33.9	0	0	---	0.00	30.266 
02:30	36.6	36.6	36.6	90	33.9	0	0	---	0.00	30.268 
02:35	36.8	36.8	36.8	90	34.1	0	0	---	0.00	30.268 
02:40	36.6	36.6	36.6	90	33.9	0	0	---	0.00	30.268 
02:45	36.6	36.6	36.6	90	33.9	0	0	---	0.00	30.273 
02:50	36.5	36.5	36.5	89	33.6	0	0	---	0.00	30.273 
02:55	36.2	36.2	36.2	89	33.3	0	0	---	0.00	30.273 
03:00	36.0	36.0	36.0	89	33.1	0	0	---	0.00	30.277 
03:05	35.9	35.9	35.9	89	33.0	0	0	---	0.00	30.277 
03:10	35.8	35.8	35.8	89	32.9	0	0	---	0.00	30.277 
03:15	35.6	35.6	35.6	89	32.7	0	0	---	0.00	30.273 
03:20	35.5	35.5	35.5	89	32.6	0	0	---	0.00	30.273 
03:25	35.3	35.3	35.3	89	32.4	0	0	---	0.00	30.273 
03:30	35.2	35.2	35.2	90	32.6	0	0	---	0.00	30.268 
03:35	35.2	35.2	35.2	90	32.6	0	0	---	0.00	30.268 
03:40	35.2	35.2	35.2	91	32.8	0	0	---	0.00	30.268 
03:45	35.2	35.2	35.2	91	32.8	0	0	---	0.00	30.269 
03:50	35.0	35.0	35.0	91	32.6	0	0	---	0.00	30.269 
03:55	34.9	34.9	34.9	91	32.5	0	0	---	0.00	30.269 
04:00	34.9	34.9	34.9	91	32.5	0	0	---	0.00	30.270 
04:05	34.7	34.7	34.7	91	32.3	0	0	---	0.00	30.270 
04:10	34.6	34.6	34.6	91	32.2	0	0	---	0.00	30.270 
04:15	34.4	34.4	34.4	91	32.0	0	0	---	0.00	30.272 
04:20	34.3	34.3	34.3	92	32.2	0	0	---	0.00	30.272 
04:25	34.3	34.3	34.3	92	32.2	0	0	---	0.00	30.272 
04:30	34.1	34.1	34.1	92	32.0	0	0	---	0.00	30.280 
04:35	34.0	34.0	34.0	92	31.9	0	0	---	0.00	30.280 
04:40	34.0	34.0	34.0	92	31.9	0	0	---	0.00	30.280 
04:45	33.8	33.8	33.8	92	31.7	0	0	---	0.00	30.286 
04:50	33.8	33.8	33.8	92	31.7	0	0	---	0.00	30.286 
04:55	33.8	33.8	33.8	92	31.7	0	0	---	0.00	30.286 
05:00	34.0	34.0	34.0	92	31.9	0	0	---	0.00	30.290 
05:05	34.0	34.0	34.0	92	31.9	0	0	---	0.00	30.290 
05:10	34.0	34.0	34.0	92	31.9	0	0	---	0.00	30.290 
05:15	34.0	34.0	34.0	93	32.2	0	0	---	0.00	30.298 
05:20	34.3	34.3	34.3	93	32.5	0	0	---	0.00	30.298 
05:25	34.6	34.6	34.6	93	32.8	0	0	---	0.00	30.298 
05:30	35.0	35.0	35.0	94	33.5	0	0	---	0.00	30.302 
05:35	35.5	35.5	35.5	94	33.9	0	0	---	0.00	30.302 
05:40	35.8	35.8	35.8	94	34.2	0	0	---	0.00	30.302 
05:45	35.9	35.9	35.9	94	34.3	0	0	---	0.00	30.303 
05:50	36.0	36.0	36.0	94	34.4	0	0	---	0.00	30.303 
05:55	36.2	36.2	36.2	94	34.6	0	0	---	0.00	30.303 
06:00	36.3	36.3	36.3	94	34.7	0	0	---	0.00	30.306 
06:05	36.5	36.5	36.5	94	34.9	0	0	---	0.00	30.306 
06:10	36.6	36.6	36.6	94	35.0	0	0	---	0.00	30.306 
06:15	36.8	36.8	36.8	94	35.2	0	0	---	0.00	30.315 
06:20	36.8	36.8	36.8	94	35.2	0	0	---	0.00	30.315 
06:25	36.9	36.9	36.9	94	35.3	0	0	---	0.00	30.315 
06:30	36.9	36.9	36.9	94	35.3	0	0	---	0.00	30.319 
06:35	36.9	36.9	36.9	94	35.3	0	0	---	0.00	30.319 
06:40	37.0	37.0	37.0	94	35.4	0	0	---	0.00	30.319 
06:45	37.0	37.0	37.0	93	35.2	0	1	315	0.00	30.321 
06:50	37.2	37.2	37.2	93	35.4	0	0	---	0.00	30.321 
06:55	37.2	37.2	37.2	93	35.4	0	1	315	0.00	30.321 
07:00	37.2	37.2	37.2	92	35.1	0	1	315	0.00	30.322 
07:05	37.2	37.2	37.2	92	35.1	0	1	315	0.00	30.322 
07:10	37.3	37.3	37.3	91	34.9	0	0	---	0.00	30.322 
07:15	37.3	37.3	37.3	91	34.9	0	1	315	0.00	30.331 
07:20	37.3	37.3	37.3	90	34.6	0	1	315	0.00	30.331 
07:25	37.3	37.3	37.3	89	34.4	0	0	---	0.00	30.331 
07:30	37.5	37.5	37.5	88	34.3	0	1	315	0.00	30.337 
07:35	37.5	37.5	37.5	88	34.3	0	0	---	0.00	30.337 
07:40	37.5	37.5	37.5	88	34.3	0	1	315	0.00	30.337 
07:45	37.5	37.5	37.5	87	34.0	0	0	---	0.00	30.342 
07:50	37.5	37.5	37.5	87	34.0	0	0	---	0.00	30.342 
07:55	37.5	37.5	37.5	87	34.0	0	0	---	0.00	30.342 
08:00	37.5	37.5	37.5	86	33.7	0	0	---	0.00	30.348 
08:05	37.5	37.5	37.5	86	33.7	0	0	---	0.00	30.348 
08:10	37.6	37.6	37.6	86	33.8	0	0	---	0.00	30.348 
08:15	37.6	37.6	37.6	86	33.8	0	0	---	0.00	30.348 
08:20	37.6	37.6	37.6	86	33.8	0	0	---	0.00	30.348 
08:25	37.6	37.6	37.6	86	33.8	0	0	---	0.00	30.348 
08:30	37.8	37.8	37.8	86	34.0	0	0	---	0.00	30.356 
08:35	37.8	37.8	37.8	86	34.0	0	0	---	0.00	30.356 
08:40	37.8	37.8	37.8	85	33.7	0	0	---	0.00	30.356 
08:45	37.9	37.9	37.9	85	33.8	0	1	315	0.00	30.368 
08:50	38.0	38.0	38.0	85	33.9	0	0	---	0.00	30.368 
08:55	38.2	38.2	38.2	84	33.8	0	0	---	0.00	30.368 
09:00	38.3	38.3	38.3	84	33.9	0	1	315	0.00	30.371 
09:05	38.5	38.5	38.5	84	34.1	0	1	315	0.00	30.371 
09:10	38.6	38.6	38.6	83	33.9	0	1	315	0.00	30.371 
09:15	38.6	38.6	38.6	82	33.6	0	2	315	0.00	30.379 
09:20	38.8	38.8	38.8	82	33.8	0	1	315	0.00	30.379 
09:25	38.8	38.8	38.8	81	33.5	0	0	---	0.00	30.379 
09:30	39.1	39.1	39.1	81	33.8	0	1	315	0.00	30.379 
09:35	39.3	39.3	39.3	79	33.3	0	1	315	0.00	30.379 
09:40	39.6	39.6	39.6	79	33.6	0	3	315	0.00	30.379 
09:45	39.8	39.8	39.8	78	33.5	0	1	315	0.00	30.385 
09:50	39.9	39.9	39.9	77	33.3	0	1	315	0.00	30.385 
09:55	40.2	40.2	40.2	77	33.6	0	1	315	0.00	30.385 
10:00	40.3	40.3	40.3	75	33.0	0	2	315	0.00	30.389 
10:05	40.6	40.6	40.6	73	32.6	0	2	315	0.00	30.389 
10:10	40.9	40.9	40.9	73	32.9	0	1	315	0.00	30.389 
10:15	41.1	41.1	41.1	69	31.7	0	2	315	0.00	30.389 
10:20	41.2	41.2	41.2	67	31.1	0	1	315	0.00	30.389 
10:25	41.5	41.5	41.5	67	31.4	0	2	315	0.00	30.389 
10:30	41.6	41.6	41.6	66	31.1	0	2	315	0.00	30.391 
10:35	41.6	41.6	41.6	64	30.3	0	2	270	0.00	30.391 
10:40	42.1	42.1	42.1	67	31.9	0	1	270	0.00	30.391 
10:45	42.5	42.5	42.5	65	31.6	0	2	270	0.00	30.391 
10:50	42.6	42.6	42.6	63	30.9	0	3	270	0.00	30.391 
10:55	42.6	42.6	42.6	59	29.3	1	3	270	0.00	30.391 
11:00	42.8	42.8	42.8	61	30.3	1	3	270	0.00	30.392 
11:05	42.9	42.9	42.9	57	28.7	0	3	270	0.00	30.392 
11:10	43.1	43.1	43.1	56	28.5	0	2	270	0.00	30.392 
11:15	43.3	43.3	43.3	56	28.7	0	2	292	0.00	30.396 
11:20	43.5	43.5	43.5	56	28.9	0	2	292	0.00	30.396 
11:25	43.5	43.5	43.5	54	28.0	0	4	292	0.00	30.396 
11:30	43.8	43.8	43.8	57	29.6	0	2	292	0.00	30.400 
11:35	44.1	44.1	44.1	53	28.1	1	3	338	0.00	30.400 
11:40	43.9	43.9	43.9	51	27.0	0	2	315	0.00	30.400 
11:45	43.9	43.9	43.9	53	27.9	0	2	315	0.00	30.400 
11:50	44.2	44.2	44.2	54	28.6	0	2	315	0.00	30.400 
11:55	44.5	44.5	44.5	55	29.3	0	2	45	0.00	30.400 
12:00	45.1	45.1	45.1	53	29.0	0	2	45	0.00	30.398 
12:05	45.4	45.4	45.4	50	27.9	1	3	270	0.00	30.398 
12:10	45.1	45.1	45.1	50	27.6	1	3	315	0.00	30.398 
12:15	45.1	45.1	45.1	52	28.5	1	3	292	0.00	30.400 
12:20	45.2	45.2	45.2	51	28.2	1	3	112	0.00	30.400 
12:25	45.2	45.2	45.2	50	27.7	0	3	292	0.00	30.400 
12:30	45.2	45.2	45.2	50	27.7	1	2	292	0.00	30.404 
12:35	45.2	45.2	45.2	51	28.2	0	2	292	0.00	30.404 
12:40	45.4	45.4	45.4	50	27.9	0	2	292	0.00	30.404 
12:45	45.5	45.5	45.5	49	27.5	1	3	0	0.00	30.401 
12:50	45.5	45.5	45.5	50	28.0	1	3	270	0.00	30.401 
12:55	45.7	45.7	45.7	51	28.6	0	2	270	0.00	30.401 
13:00	45.7	45.7	45.7	51	28.6	0	1	270	0.00	30.399 
13:05	46.0	46.0	46.0	50	28.4	0	3	270	0.00	30.399 
13:10	46.2	46.2	46.2	50	28.6	0	1	270	0.00	30.399 
13:15	46.1	46.1	46.1	46	26.5	0	2	270	0.00	30.385 
13:20	45.8	45.8	45.8	45	25.7	0	3	270	0.00	30.385 
13:25	45.7	45.7	45.7	46	26.1	0	1	45	0.00	30.385 
13:30	45.4	45.4	45.4	46	25.8	0	2	45	0.00	30.385 
13:35	45.5	45.5	45.5	49	27.5	0	2	0	0.00	30.385 
13:40	45.5	45.5	45.5	47	26.5	0	1	0	0.00	30.385 
13:45	45.7	45.7	45.7	48	27.1	0	3	338	0.00	30.387 
13:50	45.5	45.5	45.5	46	25.9	0	2	338	0.00	30.387 
13:55	45.7	45.7	45.7	49	27.6	0	2	338	0.00	30.387 
14:00	45.5	45.5	45.5	46	25.9	0	2	315	0.00	30.383 
14:05	45.4	45.4	45.4	44	24.8	0	2	315	0.00	30.383 
14:10	45.4	45.4	45.4	46	25.8	0	2	315	0.00	30.383 
14:15	45.4	45.4	45.4	43	24.2	1	3	315	0.00	30.378 
14:20	45.4	45.4	45.4	44	24.8	0	2	315	0.00	30.378 
14:25	45.4	45.4	45.4	46	25.8	0	2	315	0.00	30.378 
14:30	45.5	45.5	45.5	46	25.9	0	2	315	0.00	30.372 
14:35	45.7	45.7	45.7	50	28.1	0	2	315	0.00	30.372 
14:40	45.8	45.8	45.8	49	27.7	0	2	292	0.00	30.372 
14:45	45.8	45.8	45.8	49	27.7	0	3	292	0.00	30.368 
14:50	46.0	46.0	46.0	46	26.4	0	2	248	0.00	30.368 
14:55	46.2	46.2	46.2	47	27.1	0	2	248	0.00	30.368 
15:00	46.2	46.2	46.2	48	27.6	1	3	270	0.00	30.361 
15:05	46.2	46.2	46.2	47	27.1	0	2	270	0.00	30.361 
15:10	46.4	46.4	46.4	45	26.2	0	3	270	0.00	30.361 
15:15	46.5	46.5	46.5	46	26.8	0	2	270	0.00	30.356 
15:20	46.7	46.7	46.7	46	27.0	0	1	270	0.00	30.356 
15:25	46.8	46.8	46.8	47	27.6	0	1	270	0.00	30.356 
15:30	46.7	46.7	46.7	43	25.4	0	0	---	0.00	30.353 
15:35	46.8	46.8	46.8	44	26.0	0	0	---	0.00	30.353 
15:40	47.1	47.1	47.1	44	26.3	0	0	---	0.00	30.353 
15:45	47.3	47.3	47.3	44	26.5	0	2	270	0.00	30.351 
15:50	47.3	47.3	47.3	43	25.9	0	0	---	0.00	30.351 
15:55	47.6	47.6	47.6	44	26.8	0	1	270	0.00	30.351 
16:00	47.6	47.6	47.6	45	27.3	0	1	270	0.00	30.352 
16:05	47.6	47.6	47.6	45	27.3	0	1	270	0.00	30.352 
16:10	47.4	47.4	47.4	43	26.0	0	2	270	0.00	30.352 
16:15	47.4	47.4	47.4	43	26.0	0	2	270	0.00	30.354 
16:20	47.3	47.3	47.3	42	25.4	1	2	270	0.00	30.354 
16:25	47.0	47.0	47.0	43	25.7	1	2	270	0.00	30.354 
16:30	47.0	47.0	47.0	45	26.8	0	1	270	0.00	30.349 
16:35	47.0	47.0	47.0	45	26.8	0	1	270	0.00	30.349 
16:40	47.0	47.0	47.0	47	27.8	0	0	---	0.00	30.349 
16:45	47.0	47.0	47.0	46	27.3	0	1	270	0.00	30.345 
16:50	46.8	46.8	46.8	45	26.6	0	1	270	0.00	30.345 
16:55	46.8	46.8	46.8	45	26.6	0	0	---	0.00	30.345 
17:00	46.8	46.8	46.8	47	27.6	0	1	270	0.00	30.344 
17:05	46.7	46.7	46.7	43	25.4	0	2	270	0.00	30.344 
17:10	46.7	46.7	46.7	46	27.0	0	1	270	0.00	30.344 
17:15	46.7	46.7	46.7	43	25.4	0	1	270	0.00	30.340 
17:20	46.5	46.5	46.5	44	25.8	0	0	---	0.00	30.340 
17:25	46.5	46.5	46.5	45	26.3	0	0	---	0.00	30.340 
17:30	46.5	46.5	46.5	45	26.3	0	1	270	0.00	30.338 
17:35	46.5	46.5	46.5	46	26.8	0	0	---	0.00	30.338 
17:40	46.5	46.5	46.5	46	26.8	0	0	---	0.00	30.338 
17:45	46.4	46.4	46.4	43	25.1	0	1	270	0.00	30.338 
17:50	46.4	46.4	46.4	46	26.8	0	1	270	0.00	30.338 
17:55	46.4	46.4	46.4	47	27.3	0	0	---	0.00	30.338 
18:00	46.2	46.2	46.2	47	27.1	0	0	---	0.00	30.338 
18:05	46.2	46.2	46.2	48	27.6	0	0	---	0.00	30.338 
18:10	46.1	46.1	46.1	46	26.5	0	0	---	0.00	30.338 
18:15	46.1	46.1	46.1	47	27.0	0	0	---	0.00	30.338 
18:20	46.1	46.1	46.1	49	28.0	0	0	---	0.00	30.338 
18:25	46.0	46.0	46.0	48	27.4	0	0	---	0.00	30.338 
18:30	45.8	45.8	45.8	49	27.7	0	0	---	0.00	30.338 
18:35	45.8	45.8	45.8	51	28.7	0	0	---	0.00	30.338 
18:40	45.7	45.7	45.7	52	29.1	0	0	---	0.00	30.338 
18:45	45.5	45.5	45.5	52	28.9	0	0	---	0.00	30.339 
18:50	45.4	45.4	45.4	53	29.3	0	0	---	0.00	30.339 
18:55	45.4	45.4	45.4	57	31.1	0	0	---	0.00	30.339 
19:00	45.2	45.2	45.2	55	30.0	0	0	---	0.00	30.338 
19:05	45.1	45.1	45.1	58	31.2	0	0	---	0.00	30.338 
19:10	44.9	44.9	44.9	58	31.0	0	0	---	0.00	30.338 
19:15	44.8	44.8	44.8	60	31.8	0	0	---	0.00	30.339 
19:20	44.6	44.6	44.6	61	32.0	0	0	---	0.00	30.339 
19:25	44.5	44.5	44.5	61	31.9	0	0	---	0.00	30.339 
19:30	44.3	44.3	44.3	63	32.5	0	0	---	0.00	30.338 
19:35	44.1	44.1	44.1	63	32.3	0	0	---	0.00	30.338 
19:40	44.1	44.1	44.1	64	32.7	0	0	---	0.00	30.338 
19:45	43.9	43.9	43.9	65	32.9	0	0	---	0.00	30.344 
19:50	43.8	43.8	43.8	67	33.6	0	0	---	0.00	30.344 
19:55	43.6	43.6	43.6	68	33.7	0	0	---	0.00	30.344 
20:00	43.6	43.6	43.6	69	34.1	0	0	---	0.00	30.350 
20:05	43.5	43.5	43.5	69	34.0	0	0	---	0.00	30.350 
20:10	43.5	43.5	43.5	69	34.0	0	0	---	0.00	30.350 
20:15	43.5	43.5	43.5	69	34.0	0	0	---	0.00	30.348 
20:20	43.3	43.3	43.3	68	33.5	0	0	---	0.00	30.348 
20:25	43.3	43.3	43.3	67	33.1	0	0	---	0.00	30.348 
20:30	43.3	43.3	43.3	68	33.5	0	0	---	0.00	30.350 
20:35	43.3	43.3	43.3	67	33.1	0	0	---	0.00	30.350 
20:40	43.3	43.3	43.3	67	33.1	0	0	---	0.00	30.350 
20:45	43.3	43.3	43.3	68	33.5	0	0	---	0.00	30.344 
20:50	43.3	43.3	43.3	68	33.5	0	0	---	0.00	30.344 
20:55	43.3	43.3	43.3	69	33.8	0	0	---	0.00	30.344 
21:00	43.3	43.3	43.3	69	33.8	0	0	---	0.00	30.344 
21:05	43.2	43.2	43.2	69	33.7	0	0	---	0.00	30.344 
21:10	43.1	43.1	43.1	69	33.6	0	0	---	0.00	30.344 
21:15	43.1	43.1	43.1	70	34.0	0	0	---	0.00	30.338 
21:20	43.1	43.1	43.1	71	34.3	0	0	---	0.00	30.338 
21:25	43.1	43.1	43.1	72	34.7	0	0	---	0.00	30.338 
21:30	43.1	43.1	43.1	73	35.0	0	0	---	0.00	30.336 
21:35	42.9	42.9	42.9	73	34.9	0	0	---	0.00	30.336 
21:40	42.9	42.9	42.9	73	34.9	0	0	---	0.00	30.336 
21:45	42.8	42.8	42.8	73	34.8	0	0	---	0.00	30.338 
21:50	42.8	42.8	42.8	74	35.1	0	0	---	0.00	30.338 
21:55	42.8	42.8	42.8	73	34.8	0	0	---	0.00	30.338 
22:00	42.8	42.8	42.8	73	34.8	0	0	---	0.00	30.339 
22:05	42.8	42.8	42.8	74	35.1	0	0	---	0.00	30.339 
22:10	42.8	42.8	42.8	75	35.4	0	0	---	0.00	30.339 
22:15	42.8	42.8	42.8	74	35.1	0	0	---	0.00	30.331 
22:20	42.8	42.8	42.8	73	34.8	0	0	---	0.00	30.331 
22:25	42.8	42.8	42.8	73	34.8	0	0	---	0.00	30.331 
22:30	42.8	42.8	42.8	73	34.8	0	0	---	0.00	30.333 
22:35	42.8	42.8	42.8	74	35.1	0	0	---	0.00	30.333 
22:40	42.8	42.8	42.8	75	35.4	0	0	---	0.00	30.333 
22:45	42.8	42.8	42.8	76	35.8	0	0	---	0.00	30.324 
22:50	42.8	42.8	42.8	75	35.4	0	0	---	0.00	30.324 
22:55	42.8	42.8	42.8	75	35.4	0	0	---	0.00	30.324 
23:00	42.8	42.8	42.8	74	35.1	0	0	---	0.00	30.319 
23:05	42.9	42.9	42.9	75	35.5	0	0	---	0.00	30.319 
23:10	42.9	42.9	42.9	75	35.5	0	0	---	0.00	30.319 
23:15	42.9	42.9	42.9	76	35.9	0	0	---	0.00	30.320 
23:20	42.9	42.9	42.9	76	35.9	0	0	---	0.00	30.320 
23:25	43.1	43.1	43.1	77	36.4	0	0	---	0.00	30.320 
23:30	43.1	43.1	43.1	77	36.4	0	0	---	0.00	30.330 
23:35	43.1	43.1	43.1	77	36.4	0	0	---	0.00	30.330 
23:40	42.9	42.9	42.9	77	36.2	0	0	---	0.00	30.330 
23:45	42.9	42.9	42.9	76	35.9	0	0	---	0.00	30.331 
23:50	42.9	42.9	42.9	76	35.9	0	0	---	0.00	30.331 
23:55	42.9	42.9	42.9	77	36.2	0	0	---	0.00	30.331 

CoCoRaHS
IN-AL-39
A2 Web Hosting
Creative Commons License
GoDaddy
search engine by freefind advanced

loaded 2018-11-20 14:19:10 • last modified 2010-11-18 10:43:29
Privacy PolicyDisclaimer
• wx.awcolley.com is powered by PmWiki v.2002016 •
• all content (unless otherwise noted) © 2018 A W Colley